UNNT/OVB METAR and TAF weather

Enter ICAO airport designator
Station Type Date Time Source
UNNT METAR 2022/07/03 15:00 UTC NOAA

UNNT 031500Z 29002MPS CAVOK 16/11 Q1006 R25/090070 R34/////// NOSIG RMK QFE745/0993


Station Type Date Time Source
UNNT Decoded METAR 2022/07/03 15:00 UTC NOAA

Station name not available
Jul 03, 2022 - 11:00 AM EDT / 2022.07.03 1500 UTC
Wind: from the WNW (290 degrees) at 4 MPH (4 KT):0
Visibility: greater than 7 mile(s):0
Temperature: 60 F (16 C)
Dew Point: 51 F (11 C)
Relative Humidity: 72%
Pressure (altimeter): 29.71 in. Hg (1006 hPa)
ob: UNNT 031500Z 29002MPS CAVOK 16/11 Q1006 R25/090070 R34/////// NOSIG RMK QFE745/0993
cycle: 15

Station Type Date Time Source
UNNT TAF 2022/07/03 15:21 UTC NOAA

TAF UNNT 031400Z 0315/0415 28003G08MPS 8000 SCT040CB
BECMG 0403/0405 12003G08MPS
BECMG 0410/0412 08003G08MPS

Example: see airport list